Time;durP1;ratioP1;P1;durP2;ratioP2;P2;SDS_P1;SDS_P2;PMS_P1;PMS_P2;Temp;Humidity;BMP_temperature;BMP_pressure;BME280_temperature;BME280_humidity;BME280_pressure;Samples;Min_cycle;Max_cycle;Signal;HPM_P1;HPM_P2
2024/03/04 00:01:58;;;;;;;5.40;2.50;;;;;;;6.90;100.00;100888.47;6097399;19;20079;-77
2024/03/04 00:04:03;;;;;;;4.80;2.30;;;;;;;6.93;100.00;100896.22;6096386;19;20018;-78
2024/03/04 00:06:08;;;;;;;5.30;1.92;;;;;;;6.96;100.00;100890.94;6098526;19;20010;-78
2024/03/04 00:08:14;;;;;;;3.63;2.30;;;;;;;6.91;100.00;100892.78;6097796;19;20028;-77
2024/03/04 00:10:20;;;;;;;2.88;2.15;;;;;;;6.91;100.00;100898.00;6095183;19;20094;-77
2024/03/04 00:12:31;;;;;;;3.85;1.80;;;;;;;6.91;100.00;100890.19;6090690;19;20014;-78
2024/03/04 00:14:39;;;;;;;2.22;1.80;;;;;;;6.91;100.00;100894.56;6095441;19;20449;-78
2024/03/04 00:16:45;;;;;;;3.05;2.00;;;;;;;6.91;100.00;100898.00;6092041;19;20014;-78
2024/03/04 00:18:52;;;;;;;2.35;1.80;;;;;;;6.88;100.00;100908.53;6092665;19;20014;-78
2024/03/04 00:20:58;;;;;;;3.10;2.03;;;;;;;6.93;100.00;100906.69;6095534;19;20011;-78
2024/03/04 00:23:04;;;;;;;6.68;2.10;;;;;;;6.89;100.00;100902.41;6094213;19;20018;-79
2024/03/04 00:25:14;;;;;;;2.63;2.00;;;;;;;6.93;100.00;100904.06;6093202;19;20047;-78
2024/03/04 00:27:20;;;;;;;4.85;1.85;;;;;;;6.93;100.00;100911.06;6090616;19;20019;-79
2024/03/04 00:29:27;;;;;;;2.75;1.63;;;;;;;6.94;100.00;100913.59;6090284;19;20020;-79
2024/03/04 00:31:33;;;;;;;6.47;1.90;;;;;;;6.91;100.00;100924.13;6090809;19;20023;-78
2024/03/04 00:33:40;;;;;;;2.10;1.40;;;;;;;6.94;100.00;100933.66;6088018;19;20017;-78
2024/03/04 00:35:48;;;;;;;2.97;1.80;;;;;;;6.91;100.00;100934.59;6086415;19;20397;-78
2024/03/04 00:37:51;;;;;;;1.70;1.50;;;;;;;6.91;100.00;100931.13;6086174;19;20010;-78
2024/03/04 00:39:56;;;;;;;4.50;2.00;;;;;;;6.88;100.00;100919.00;6086024;19;20540;-78
2024/03/04 00:42:02;;;;;;;3.08;1.83;;;;;;;6.91;100.00;100928.50;6084394;19;20768;-79
2024/03/04 00:44:07;;;;;;;7.60;2.17;;;;;;;6.91;100.00;100923.28;6084406;19;20006;-78
2024/03/04 00:46:12;;;;;;;2.67;1.73;;;;;;;6.94;100.00;100917.97;6084236;19;20465;-78
2024/03/04 00:48:17;;;;;;;5.10;2.38;;;;;;;6.90;100.00;100911.09;6086141;19;20090;-77
2024/03/04 00:50:23;;;;;;;7.30;1.98;;;;;;;6.88;100.00;100913.78;6084015;19;20022;-77
2024/03/04 00:52:31;;;;;;;1.70;1.60;;;;;;;6.87;100.00;100911.19;6080756;19;20010;-80
2024/03/04 00:54:33;;;;;;;1.77;1.63;;;;;;;6.90;100.00;100911.97;6083173;19;20011;-77
2024/03/04 00:56:38;;;;;;;2.58;1.40;;;;;;;6.85;100.00;100924.28;6083668;19;20023;-77
2024/03/04 00:58:44;;;;;;;2.40;1.65;;;;;;;6.85;100.00;100923.44;6083831;19;20004;-77
2024/03/04 01:00:47;;;;;;;4.85;1.88;;;;;;;6.83;100.00;100926.06;6080781;19;20019;-78
2024/03/04 01:02:53;;;;;;;1.58;1.48;;;;;;;6.84;100.00;100927.78;6084002;19;20042;-77
2024/03/04 01:04:59;;;;;;;3.83;1.50;;;;;;;6.84;100.00;100919.94;6082807;19;20482;-78
2024/03/04 01:07:05;;;;;;;6.07;1.92;;;;;;;6.82;100.00;100926.97;6082153;19;20010;-77
2024/03/04 01:09:12;;;;;;;1.63;1.40;;;;;;;6.79;100.00;100924.41;6084783;19;20018;-77
2024/03/04 01:11:18;;;;;;;1.67;1.50;;;;;;;6.76;100.00;100924.50;6081250;19;20003;-77
2024/03/04 01:13:23;;;;;;;7.95;1.98;;;;;;;6.75;100.00;100926.25;6082596;19;20015;-75
2024/03/04 01:15:30;;;;;;;3.80;1.05;;;;;;;6.73;100.00;100930.66;6082721;19;20561;-75
2024/03/04 01:17:35;;;;;;;2.22;1.05;;;;;;;6.76;100.00;100929.72;6086225;19;20046;-75
2024/03/04 01:19:42;;;;;;;1.20;1.00;;;;;;;6.75;100.00;100938.47;6085960;19;20061;-76
2024/03/04 01:21:52;;;;;;;1.27;1.20;;;;;;;6.76;100.00;100929.72;6083026;19;20007;-75
2024/03/04 01:23:57;;;;;;;1.88;1.13;;;;;;;6.75;100.00;100934.09;6084457;19;20003;-75
2024/03/04 01:26:09;;;;;;;1.45;1.17;;;;;;;6.78;100.00;100943.59;6084785;19;20054;-75
2024/03/04 01:28:15;;;;;;;1.75;1.30;;;;;;;6.76;100.00;100940.16;6084916;19;20011;-75
2024/03/04 01:30:24;;;;;;;1.90;1.35;;;;;;;6.77;100.00;100945.38;6086272;19;20071;-75
2024/03/04 01:32:35;;;;;;;3.67;1.85;;;;;;;6.79;100.00;100956.66;6077729;19;20006;-77
2024/03/04 01:34:40;;;;;;;0.70;0.70;;;;;;;6.71;100.00;100949.84;6083396;19;20355;-77
2024/03/04 01:36:44;;;;;;;3.35;1.08;;;;;;;6.73;100.00;100955.91;6081423;19;20006;-78
2024/03/04 01:38:49;;;;;;;1.10;1.05;;;;;;;6.71;100.00;100960.31;6083475;19;20060;-78
2024/03/04 01:40:54;;;;;;;2.03;1.25;;;;;;;6.70;100.00;100956.84;6082855;19;20015;-78
2024/03/04 01:43:06;;;;;;;3.50;1.52;;;;;;;6.69;100.00;100959.47;6084904;19;20584;-78
2024/03/04 01:45:18;;;;;;;3.78;1.67;;;;;;;6.69;100.00;100960.34;6080349;19;20213;-78
2024/03/04 01:47:23;;;;;;;1.30;1.20;;;;;;;6.68;100.00;100963.84;6082834;19;20003;-78
2024/03/04 01:49:34;;;;;;;8.45;1.48;;;;;;;6.67;100.00;100964.75;6083168;19;20002;-78
2024/03/04 01:51:40;;;;;;;5.45;1.50;;;;;;;6.73;100.00;100975.03;6081484;19;20037;-78
2024/03/04 01:53:46;;;;;;;2.05;1.75;;;;;;;6.70;100.00;100982.94;6080065;19;20010;-78
2024/03/04 01:55:57;;;;;;;1.40;1.30;;;;;;;6.68;100.00;100974.28;6081422;19;20893;-80
2024/03/04 01:58:11;;;;;;;4.68;1.45;;;;;;;6.67;100.00;100982.16;6083927;19;20034;-76
2024/03/04 02:00:28;;;;;;;1.10;1.10;;;;;;;6.70;100.00;100984.72;6080677;19;20018;-75
2024/03/04 02:02:37;;;;;;;4.07;1.40;;;;;;;6.69;100.00;100986.47;6082234;19;20063;-75
2024/03/04 02:04:44;;;;;;;2.45;1.10;;;;;;;6.69;100.00;100977.75;6084328;19;20006;-75
2024/03/04 02:06:53;;;;;;;1.20;1.20;;;;;;;6.68;100.00;100992.56;6081137;19;20082;-75
2024/03/04 02:09:00;;;;;;;1.00;1.00;;;;;;;6.64;100.00;100988.31;6080618;19;20376;-76
2024/03/04 02:11:09;;;;;;;3.53;1.30;;;;;;;6.70;100.00;100996.00;6081467;19;20250;-76
2024/03/04 02:13:21;;;;;;;3.10;1.27;;;;;;;6.67;100.00;101000.44;6081927;19;20099;-77
2024/03/04 02:15:27;;;;;;;1.77;1.17;;;;;;;6.69;100.00;101001.25;6082341;19;20019;-79
2024/03/04 02:17:32;;;;;;;3.05;1.00;;;;;;;6.67;100.00;100998.69;6083455;19;20426;-78
2024/03/04 02:19:35;;;;;;;2.95;1.17;;;;;;;6.66;100.00;100997.00;6084136;19;20014;-78
2024/03/04 02:21:45;;;;;;;2.65;1.05;;;;;;;6.65;100.00;101004.84;6084447;19;20015;-78
2024/03/04 02:23:53;;;;;;;1.35;1.23;;;;;;;6.67;100.00;101009.13;6082425;19;20011;-78
2024/03/04 02:25:59;;;;;;;1.52;1.02;;;;;;;6.68;100.00;101000.41;6083203;19;20014;-78
2024/03/04 02:28:02;;;;;;;1.70;1.10;;;;;;;6.70;100.00;101010.81;6082766;19;20003;-78
2024/03/04 02:30:07;;;;;;;;;;;;;;;6.67;100.00;101016.13;6079047;19;20340;-78
2024/03/04 02:32:12;;;;;;;1.63;1.27;;;;;;;6.64;100.00;101013.59;6081841;19;20252;-78
2024/03/04 02:34:18;;;;;;;2.72;1.40;;;;;;;6.65;100.00;101015.28;6082450;19;20002;-80
2024/03/04 02:36:23;;;;;;;2.72;1.27;;;;;;;6.66;100.00;101009.16;6086272;19;20023;-78
2024/03/04 02:38:31;;;;;;;1.40;1.27;;;;;;;6.60;100.00;101016.22;6086788;19;20094;-78
2024/03/04 02:40:39;;;;;;;0.90;0.90;;;;;;;6.58;100.00;101015.44;6088865;19;20003;-79
2024/03/04 02:42:44;;;;;;;1.15;0.95;;;;;;;6.64;100.00;101021.41;6090808;19;20048;-78
2024/03/04 02:44:49;;;;;;;1.50;1.27;;;;;;;6.59;100.00;101014.53;6088586;19;20380;-78
2024/03/04 02:46:54;;;;;;;1.73;1.33;;;;;;;6.67;100.00;101018.72;6091412;19;20388;-78
2024/03/04 02:48:58;;;;;;;1.52;1.33;;;;;;;6.59;100.00;101019.75;6088622;19;20030;-78
2024/03/04 02:51:03;;;;;;;2.33;1.15;;;;;;;6.58;100.00;101022.38;6090978;19;20011;-78
2024/03/04 02:53:05;;;;;;;3.33;1.40;;;;;;;6.57;100.00;101021.53;6092171;19;20608;-79
2024/03/04 02:55:11;;;;;;;1.27;1.23;;;;;;;6.61;100.00;101019.72;6094145;19;20007;-79
2024/03/04 02:57:18;;;;;;;1.20;1.10;;;;;;;6.59;100.00;101024.97;6096379;19;20006;-79
2024/03/04 02:59:24;;;;;;;2.50;1.30;;;;;;;6.56;100.00;101022.44;6093506;19;20141;-78
2024/03/04 03:01:30;;;;;;;1.40;1.05;;;;;;;6.58;100.00;101025.88;6097696;19;20609;-79
2024/03/04 03:03:35;;;;;;;4.13;1.20;;;;;;;6.59;100.00;101034.56;6097258;19;20007;-78
2024/03/04 03:05:43;;;;;;;1.10;1.10;;;;;;;6.56;100.00;101037.25;6092902;19;20072;-79
2024/03/04 03:07:48;;;;;;;1.77;1.38;;;;;;;6.52;100.00;101035.56;6094932;19;20021;-78
2024/03/04 03:09:53;;;;;;;4.13;1.35;;;;;;;6.52;100.00;101043.41;6093793;19;20070;-78
2024/03/04 03:12:00;;;;;;;3.95;1.20;;;;;;;6.49;100.00;101046.94;6092018;19;20063;-79
2024/03/04 03:14:08;;;;;;;1.13;0.95;;;;;;;6.51;100.00;101041.69;6092293;19;20058;-78
2024/03/04 03:16:20;;;;;;;3.10;1.08;;;;;;;6.48;100.00;101050.44;6089902;19;20010;-78
2024/03/04 03:18:26;;;;;;;0.73;0.73;;;;;;;6.50;100.00;101047.78;6083572;19;20029;-79
2024/03/04 03:20:33;;;;;;;1.25;1.08;;;;;;;6.48;100.00;101049.59;6087172;19;20014;-78
2024/03/04 03:22:38;;;;;;;2.28;1.10;;;;;;;6.50;100.00;101053.00;6087933;19;20035;-79
2024/03/04 03:24:43;;;;;;;2.13;1.05;;;;;;;6.49;100.00;101051.31;6088023;19;20017;-78
2024/03/04 03:26:49;;;;;;;4.40;1.42;;;;;;;6.49;100.00;101049.53;6088892;19;20006;-78
2024/03/04 03:28:56;;;;;;;1.42;0.82;;;;;;;6.44;100.00;101056.59;6085686;19;20007;-79
2024/03/04 03:31:04;;;;;;;2.28;1.00;;;;;;;6.44;100.00;101060.97;6086091;19;20010;-78
2024/03/04 03:33:10;;;;;;;1.00;0.82;;;;;;;6.46;100.00;101056.59;6082302;19;20498;-78
2024/03/04 03:35:18;;;;;;;4.25;1.05;;;;;;;6.41;100.00;101056.66;6084180;19;20281;-78
2024/03/04 03:37:20;;;;;;;0.70;0.70;;;;;;;6.36;100.00;101066.34;6084101;19;20015;-79
2024/03/04 03:39:28;;;;;;;1.10;1.10;;;;;;;6.33;100.00;101064.66;6085614;19;20050;-78
2024/03/04 03:41:33;;;;;;;1.55;1.45;;;;;;;6.37;100.00;101068.03;6083986;19;20767;-79
2024/03/04 03:43:36;;;;;;;2.85;0.80;;;;;;;6.34;100.00;101070.72;6087536;19;20030;-78
2024/03/04 03:45:42;;;;;;;0.90;0.90;;;;;;;6.32;100.00;101072.53;6085397;19;20346;-79
2024/03/04 03:47:49;;;;;;;2.90;1.15;;;;;;;6.28;100.00;101073.47;6086914;19;20070;-79
2024/03/04 03:49:56;;;;;;;1.30;0.95;;;;;;;6.28;100.00;101076.06;6085619;19;20104;-78
2024/03/04 03:52:03;;;;;;;0.82;0.82;;;;;;;6.28;100.00;101079.53;6084232;19;20105;-76
2024/03/04 03:54:09;;;;;;;6.15;1.38;;;;;;;6.27;100.00;101077.81;6082710;19;20359;-76
2024/03/04 03:56:18;;;;;;;4.18;1.05;;;;;;;6.27;100.00;101082.19;6084385;19;20002;-76
2024/03/04 03:58:27;;;;;;;4.15;1.08;;;;;;;6.24;100.00;101084.84;6085842;19;20015;-76
2024/03/04 04:00:32;;;;;;;1.63;1.10;;;;;;;6.23;100.00;101090.94;6083869;19;20027;-76
2024/03/04 04:02:40;;;;;;;2.20;1.20;;;;;;;6.20;100.00;101091.88;6084800;19;20011;-76
2024/03/04 04:04:51;;;;;;;1.45;1.20;;;;;;;6.19;100.00;101094.50;6083100;19;20022;-76
2024/03/04 04:07:10;;;;;;;0.90;0.90;;;;;;;6.21;100.00;101100.56;6084003;19;20010;-76
2024/03/04 04:09:18;;;;;;;0.90;0.85;;;;;;;6.19;100.00;101104.94;6083689;19;20006;-76
2024/03/04 04:11:29;;;;;;;0.80;0.80;;;;;;;6.18;100.00;101100.63;6080155;19;20449;-76
2024/03/04 04:13:34;;;;;;;1.65;1.13;;;;;;;6.16;100.00;101100.63;6085023;19;20035;-76
2024/03/04 04:17:59;;;;;;;1.02;1.02;;;;;;;6.13;100.00;101111.13;6081013;19;20010;-76
2024/03/04 04:20:09;;;;;;;1.85;0.93;;;;;;;6.15;100.00;101109.34;6081342;19;19998;-76
2024/03/04 04:22:18;;;;;;;1.23;1.10;;;;;;;6.19;100.00;101110.16;6083170;19;20365;-76
2024/03/04 04:24:30;;;;;;;1.63;1.30;;;;;;;6.15;100.00;101112.81;6083648;19;20010;-75
2024/03/04 04:26:36;;;;;;;2.97;1.30;;;;;;;6.15;100.00;101114.56;6081077;19;20475;-76
2024/03/04 04:28:42;;;;;;;4.95;1.05;;;;;;;6.15;100.00;101107.59;6083881;19;20029;-75
2024/03/04 04:30:48;;;;;;;3.13;1.25;;;;;;;6.15;100.00;101110.22;6082305;19;20035;-75
2024/03/04 04:32:54;;;;;;;3.50;1.10;;;;;;;6.15;100.00;101117.19;6084223;19;20014;-75
2024/03/04 04:35:00;;;;;;;1.35;1.00;;;;;;;6.11;100.00;101116.38;6084841;19;20392;-75
2024/03/04 04:37:09;;;;;;;3.00;1.15;;;;;;;6.09;100.00;101104.25;6083197;19;20010;-75
2024/03/04 04:39:16;;;;;;;1.00;1.00;;;;;;;6.08;100.00;101106.00;6081454;19;20006;-75
2024/03/04 04:41:23;;;;;;;1.13;1.10;;;;;;;6.09;100.00;101115.53;6082448;19;20006;-76
2024/03/04 04:43:31;;;;;;;1.27;1.08;;;;;;;6.08;100.00;101108.63;6081513;19;20095;-78
2024/03/04 04:45:37;;;;;;;1.50;1.05;;;;;;;6.07;100.00;101111.25;6084766;19;20021;-77
2024/03/04 04:47:46;;;;;;;1.60;1.27;;;;;;;6.06;100.00;101118.22;6079348;19;20452;-75
2024/03/04 04:49:53;;;;;;;0.90;0.90;;;;;;;6.07;100.00;101112.09;6083076;19;20014;-78
2024/03/04 04:52:01;;;;;;;1.25;1.15;;;;;;;6.05;100.00;101124.31;6082627;19;20021;-75
2024/03/04 04:54:09;;;;;;;2.08;1.30;;;;;;;6.05;100.00;101111.25;6078834;19;20069;-75
2024/03/04 04:56:19;;;;;;;1.45;0.90;;;;;;;6.06;100.00;101112.16;6083273;19;20022;-75
2024/03/04 04:58:25;;;;;;;1.20;1.17;;;;;;;6.04;100.00;101111.31;6080111;19;20006;-76
2024/03/04 05:00:33;;;;;;;2.30;1.30;;;;;;;6.00;100.00;101113.09;6076659;19;20073;-76
2024/03/04 05:02:37;;;;;;;2.33;1.50;;;;;;;6.00;100.00;101105.25;6084405;19;20037;-76
2024/03/04 05:04:45;;;;;;;;;;;;;;;6.01;100.00;101106.16;6081827;19;20019;-76
2024/03/04 05:07:04;;;;;;;1.13;1.02;;;;;;;6.00;100.00;101115.69;6083833;19;19943;-76
2024/03/04 05:09:18;;;;;;;2.63;1.30;;;;;;;5.99;100.00;101126.16;6080647;19;20037;-76
2024/03/04 05:11:27;;;;;;;1.92;1.15;;;;;;;5.96;100.00;101116.66;6078492;19;20015;-76
2024/03/04 05:13:35;;;;;;;2.30;1.33;;;;;;;5.96;100.00;101118.41;6079919;19;20323;-77
2024/03/04 05:15:42;;;;;;;2.65;0.93;;;;;;;5.93;100.00;101122.78;6082971;19;20010;-76
2024/03/04 05:17:48;;;;;;;1.77;1.23;;;;;;;5.94;100.00;101128.84;6079534;19;20484;-76
2024/03/04 05:19:57;;;;;;;1.27;1.10;;;;;;;5.94;100.00;101127.09;6084405;19;20031;-76
2024/03/04 05:22:00;;;;;;;1.70;1.20;;;;;;;5.95;100.00;101133.19;6079874;19;20725;-79
2024/03/04 05:24:05;;;;;;;1.05;1.05;;;;;;;5.94;100.00;101139.28;6082976;19;20596;-79
2024/03/04 05:26:16;;;;;;;2.92;1.33;;;;;;;5.93;100.00;101145.38;6082306;19;20098;-77
2024/03/04 05:28:20;;;;;;;1.40;1.10;;;;;;;5.90;100.00;101140.19;6084781;19;20006;-78
2024/03/04 05:30:33;;;;;;;2.83;1.27;;;;;;;5.92;100.00;101149.72;6079986;19;20034;-75
2024/03/04 05:32:39;;;;;;;1.40;1.30;;;;;;;5.91;100.00;101141.91;6080821;19;20248;-76
2024/03/04 05:34:45;;;;;;;1.25;1.17;;;;;;;5.90;100.00;101150.63;6082356;19;20451;-78
2024/03/04 05:36:48;;;;;;;2.65;1.40;;;;;;;5.91;100.00;101150.59;6084365;19;20546;-79
2024/03/04 05:38:53;;;;;;;3.53;1.58;;;;;;;5.91;100.00;101147.13;6085193;19;20027;-79
2024/03/04 05:41:02;;;;;;;3.22;1.73;;;;;;;5.89;100.00;101149.75;6084911;19;20011;-79
2024/03/04 05:43:12;;;;;;;1.95;1.23;;;;;;;5.92;100.00;101160.16;6085023;19;20010;-78
2024/03/04 05:45:18;;;;;;;1.83;1.40;;;;;;;5.92;100.00;101154.94;6088175;19;20018;-81
2024/03/04 05:47:41;;;;;;;1.55;1.25;;;;;;;5.90;100.00;101153.25;6086478;19;20048;-75
2024/03/04 05:49:56;;;;;;;2.17;1.52;;;;;;;5.92;100.00;101154.06;6086589;19;20014;-75
2024/03/04 05:52:04;;;;;;;;;;;;;;;5.93;100.00;101163.63;5998691;19;2004828;-76
2024/03/04 05:54:14;;;;;;;2.78;1.60;;;;;;;5.89;100.00;101162.78;6080605;19;20619;-76
2024/03/04 05:56:43;;;;;;;1.45;1.35;;;;;;;5.88;100.00;101157.63;6088454;19;20040;-77
2024/03/04 05:58:57;;;;;;;1.27;1.27;;;;;;;5.85;100.00;101157.66;6081166;19;20045;-76
2024/03/04 06:01:19;;;;;;;1.40;1.30;;;;;;;5.82;100.00;101161.19;6084404;19;20015;-76
2024/03/04 06:03:33;;;;;;;1.63;1.38;;;;;;;5.83;100.00;101162.03;6082633;19;20391;-76
2024/03/04 06:05:47;;;;;;;2.40;1.52;;;;;;;5.82;100.00;101158.59;6083135;19;20257;-76
2024/03/04 06:08:08;;;;;;;1.02;1.02;;;;;;;5.82;100.00;101162.91;6084390;19;20010;-76
2024/03/04 06:10:29;;;;;;;4.70;1.73;;;;;;;5.82;100.00;101160.31;6083748;19;20007;-76
2024/03/04 06:12:41;;;;;;;3.38;1.80;;;;;;;5.80;100.00;101168.16;5986617;19;2004473;-76
2024/03/04 06:14:53;;;;;;;1.50;1.40;;;;;;;5.80;100.00;101162.09;6086537;19;20031;-76
2024/03/04 06:17:02;;;;;;;2.10;1.65;;;;;;;5.77;100.00;101164.75;6083283;19;20579;-76
2024/03/04 06:19:16;;;;;;;3.13;2.13;;;;;;;5.78;100.00;101166.47;6088056;19;20010;-76
2024/03/04 06:21:24;;;;;;;1.00;0.93;;;;;;;5.81;100.00;101162.06;6088555;19;20588;-76
2024/03/04 06:23:38;;;;;;;1.58;1.48;;;;;;;5.80;100.00;101169.91;6086005;19;20550;-76
2024/03/04 06:25:43;;;;;;;4.00;1.80;;;;;;;5.78;100.00;101167.31;6088702;19;20014;-76
2024/03/04 06:28:00;;;;;;;3.03;1.55;;;;;;;5.78;100.00;101167.31;6084768;19;20027;-76
2024/03/04 06:30:13;;;;;;;2.80;1.65;;;;;;;5.77;100.00;101168.22;6086619;19;20011;-76
2024/03/04 06:32:32;;;;;;;3.08;1.98;;;;;;;5.81;100.00;101167.28;6087519;19;20010;-76
2024/03/04 06:34:36;;;;;;;1.95;1.60;;;;;;;5.84;100.00;101164.59;6085201;19;20540;-79
2024/03/04 06:36:46;;;;;;;1.73;1.40;;;;;;;5.86;100.00;101169.81;6089092;19;20498;-79
2024/03/04 06:38:54;;;;;;;2.83;1.70;;;;;;;5.93;100.00;101168.84;6090104;19;20700;-76
2024/03/04 06:41:05;;;;;;;1.83;1.38;;;;;;;5.92;100.00;101167.09;6085299;19;20565;-76
2024/03/04 06:43:12;;;;;;;2.63;1.75;;;;;;;5.89;100.00;101177.59;6084100;19;20592;-76
2024/03/04 06:45:42;;;;;;;;;;;;;;;;;;;;;
2024/03/04 06:47:47;;;;;;;2.58;1.40;;;;;;;5.82;100.00;101189.88;6085784;19;20007;-78
2024/03/04 06:49:53;;;;;;;3.53;1.98;;;;;;;5.84;100.00;101198.50;6087145;19;20017;-79
2024/03/04 06:51:58;;;;;;;5.95;1.65;;;;;;;5.83;100.00;101202.00;6090216;19;20010;-79
2024/03/04 06:54:01;;;;;;;2.45;1.60;;;;;;;5.83;100.00;101208.97;6084306;19;20007;-79
2024/03/04 06:56:12;;;;;;;3.72;2.28;;;;;;;5.85;100.00;101204.63;6089692;19;20026;-79
2024/03/04 06:58:17;;;;;;;1.73;1.60;;;;;;;5.82;100.00;101215.06;6085907;19;20349;-78
2024/03/04 07:00:25;;;;;;;2.67;1.88;;;;;;;5.83;100.00;101219.41;6083289;19;20402;-78
2024/03/04 07:02:31;;;;;;;1.80;1.58;;;;;;;5.88;100.00;101231.50;6087953;19;20018;-77
2024/03/04 07:04:37;;;;;;;5.15;1.90;;;;;;;5.89;100.00;101229.75;6085626;19;20082;-78
2024/03/04 07:06:43;;;;;;;6.75;2.60;;;;;;;5.87;100.00;101229.78;6084488;19;20576;-78
2024/03/04 07:08:48;;;;;;;2.13;1.80;;;;;;;5.89;100.00;101240.19;6085262;19;20013;-78
2024/03/04 07:10:56;;;;;;;2.97;1.70;;;;;;;5.89;100.00;101240.19;6078131;19;20020;-78
2024/03/04 07:13:01;;;;;;;5.28;2.08;;;;;;;5.90;100.00;101244.53;6077604;19;20094;-76
2024/03/04 07:15:07;;;;;;;2.47;1.40;;;;;;;5.91;100.00;101241.03;6080337;19;20003;-78
2024/03/04 07:17:18;;;;;;;2.80;1.60;;;;;;;5.93;100.00;101240.16;6081114;19;20050;-78
2024/03/04 07:19:23;;;;;;;3.30;1.70;;;;;;;6.01;100.00;101245.25;6083989;19;20021;-77
2024/03/04 07:21:29;;;;;;;4.97;2.00;;;;;;;6.02;100.00;101251.34;6083412;19;20658;-78
2024/03/04 07:23:37;;;;;;;2.97;1.83;;;;;;;6.01;100.00;101250.47;6086183;19;20017;-78
2024/03/04 07:25:42;;;;;;;3.63;2.20;;;;;;;6.02;100.00;101246.97;6079487;19;20039;-78
2024/03/04 07:27:48;;;;;;;2.97;2.00;;;;;;;6.03;100.00;101253.94;6082000;19;20014;-78
2024/03/04 07:29:51;;;;;;;8.13;2.20;;;;;;;6.06;100.00;101251.28;6082091;19;20549;-78
2024/03/04 07:32:07;;;;;;;6.53;2.25;;;;;;;6.10;100.00;101252.94;6083013;19;20023;-79
2024/03/04 07:34:15;;;;;;;5.10;2.42;;;;;;;6.12;100.00;101255.53;6081749;19;20006;-80
2024/03/04 07:36:19;;;;;;;2.60;1.95;;;;;;;6.16;100.00;101257.19;6081057;19;20014;-80
2024/03/04 07:38:31;;;;;;;6.10;2.65;;;;;;;6.23;100.00;101257.97;6081223;19;20011;-79
2024/03/04 07:40:41;;;;;;;5.22;2.22;;;;;;;6.25;100.00;101259.66;6081867;19;20467;-79
2024/03/04 07:42:46;;;;;;;3.45;2.35;;;;;;;6.30;100.00;101265.69;6080976;19;20229;-79
2024/03/04 07:44:51;;;;;;;5.75;2.47;;;;;;;6.34;100.00;101259.50;6080002;19;20018;-77
2024/03/04 07:46:54;;;;;;;5.05;2.28;;;;;;;6.39;100.00;101254.22;6081508;19;20003;-78
2024/03/04 07:48:59;;;;;;;7.00;3.10;;;;;;;6.42;100.00;101258.53;6081334;19;20006;-80
2024/03/04 07:51:05;;;;;;;3.33;2.22;;;;;;;6.55;100.00;101255.69;6082766;19;20014;-78
2024/03/04 07:53:13;;;;;;;5.25;2.30;;;;;;;6.68;100.00;101260.69;6084264;19;20038;-79
2024/03/04 07:55:20;;;;;;;3.90;1.98;;;;;;;6.76;100.00;101264.03;6084282;19;20014;-79
2024/03/04 07:57:30;;;;;;;3.10;2.03;;;;;;;6.86;100.00;101254.28;6081784;19;20007;-78
2024/03/04 07:59:37;;;;;;;3.97;2.35;;;;;;;6.96;100.00;101261.91;6080722;19;20014;-78
2024/03/04 08:01:48;;;;;;;5.43;2.50;;;;;;;7.04;100.00;101262.63;6078951;19;20042;-78
2024/03/04 08:03:55;;;;;;;4.35;2.67;;;;;;;7.14;100.00;101260.72;6081935;19;20019;-80
2024/03/04 08:06:01;;;;;;;3.67;2.20;;;;;;;7.19;100.00;101256.25;6080503;19;20015;-78
2024/03/04 08:08:09;;;;;;;3.83;2.50;;;;;;;7.23;100.00;101268.34;6082540;19;20651;-79
2024/03/04 08:10:14;;;;;;;3.88;2.20;;;;;;;7.25;100.00;101268.34;6080723;19;20027;-80
2024/03/04 08:12:19;;;;;;;5.43;2.20;;;;;;;7.31;100.00;101268.22;6082804;19;20052;-79
2024/03/04 08:14:44;;;;;;;2.92;1.70;;;;;;;7.33;100.00;101273.41;6082721;19;20278;-80
2024/03/04 08:16:52;;;;;;;5.15;2.70;;;;;;;7.32;100.00;101264.72;6083404;19;20019;-77
2024/03/04 08:18:57;;;;;;;5.40;2.25;;;;;;;7.22;100.00;101265.78;6082323;19;20006;-77
2024/03/04 08:21:04;;;;;;;3.88;2.03;;;;;;;7.13;100.00;101271.19;6084287;19;20089;-77
2024/03/04 08:23:18;;;;;;;4.57;2.70;;;;;;;7.23;100.00;101281.44;6085353;19;20537;-78
2024/03/04 08:25:23;;;;;;;5.20;2.40;;;;;;;7.24;100.00;101275.31;6085094;19;20534;-76
2024/03/04 08:27:36;;;;;;;2.05;1.80;;;;;;;7.16;100.00;101278.97;6083025;19;20006;-76
2024/03/04 08:29:42;;;;;;;3.33;2.30;;;;;;;7.23;100.00;101277.97;6083091;19;20082;-77
2024/03/04 08:31:48;;;;;;;3.95;2.08;;;;;;;7.18;100.00;101270.19;6085644;19;20332;-80
2024/03/04 08:33:53;;;;;;;2.35;1.75;;;;;;;7.22;100.00;101271.88;6082919;19;20042;-76
2024/03/04 08:36:00;;;;;;;4.57;2.25;;;;;;;7.27;100.00;101279.63;6083193;19;20449;-77
2024/03/04 08:38:08;;;;;;;2.60;1.88;;;;;;;7.23;100.00;101280.56;6083904;19;20023;-77
2024/03/04 08:40:16;;;;;;;4.35;2.38;;;;;;;7.22;100.00;101279.72;6083280;19;20015;-78
2024/03/04 08:42:22;;;;;;;3.92;2.35;;;;;;;7.18;100.00;101278.03;6085168;19;20014;-77
2024/03/04 08:44:30;;;;;;;3.63;2.05;;;;;;;7.29;100.00;101283.06;6081623;19;20021;-77
2024/03/04 08:46:36;;;;;;;5.70;2.13;;;;;;;7.37;100.00;101294.25;6083367;19;20310;-78
2024/03/04 08:48:49;;;;;;;4.47;2.33;;;;;;;7.38;100.00;101285.50;6080870;19;19999;-78
2024/03/04 08:50:59;;;;;;;3.53;2.35;;;;;;;7.34;100.00;101285.59;6078983;19;20011;-78
2024/03/04 08:53:08;;;;;;;4.07;2.10;;;;;;;7.40;100.00;101285.47;6078535;19;20021;-78
2024/03/04 08:55:16;;;;;;;4.57;2.05;;;;;;;7.44;100.00;101281.91;6076369;19;20098;-79
2024/03/04 08:57:23;;;;;;;5.20;2.15;;;;;;;7.55;100.00;101285.16;6078836;19;20018;-77
2024/03/04 08:59:30;;;;;;;5.82;2.38;;;;;;;7.48;100.00;101292.28;6077614;19;20011;-78
2024/03/04 09:01:35;;;;;;;4.50;2.47;;;;;;;7.55;100.00;101284.28;6078937;19;20632;-78
2024/03/04 09:03:43;;;;;;;3.58;2.22;;;;;;;7.56;100.00;101292.13;6073849;19;20006;-78
2024/03/04 09:05:50;;;;;;;7.82;2.45;;;;;;;7.60;100.00;101285.91;6080859;19;20006;-77
2024/03/04 09:07:57;;;;;;;2.65;1.92;;;;;;;7.58;100.00;101294.69;6080987;19;20265;-78
2024/03/04 09:10:04;;;;;;;7.38;2.45;;;;;;;7.70;100.00;101291.81;6084206;19;20085;-78
2024/03/04 09:12:12;;;;;;;4.90;3.15;;;;;;;7.86;100.00;101293.19;6083178;19;20018;-77
2024/03/04 09:14:17;;;;;;;4.47;2.17;;;;;;;7.76;100.00;101298.66;6077234;19;20017;-79
2024/03/04 09:16:24;;;;;;;3.25;2.05;;;;;;;7.83;100.00;101298.50;6075230;19;20014;-77
2024/03/04 09:18:39;;;;;;;4.93;2.42;;;;;;;7.87;100.00;101294.94;6078920;19;20016;-79
2024/03/04 09:20:44;;;;;;;5.53;2.90;;;;;;;7.95;100.00;101296.50;6078158;19;20147;-77
2024/03/04 09:22:49;;;;;;;3.63;2.08;;;;;;;8.05;100.00;101292.78;6076089;19;20292;-79
2024/03/04 09:24:59;;;;;;;8.05;2.50;;;;;;;8.05;100.00;101292.78;6079415;19;20410;-79
2024/03/04 09:27:06;;;;;;;6.72;2.85;;;;;;;8.10;100.00;101291.78;6082776;19;20014;-79
2024/03/04 09:29:15;;;;;;;4.43;2.38;;;;;;;8.22;100.00;101295.03;6083225;19;20042;-77
2024/03/04 09:31:22;;;;;;;3.65;2.42;;;;;;;8.32;100.00;101302.63;6079167;19;20011;-77
2024/03/04 09:33:27;;;;;;;3.88;2.70;;;;;;;8.32;100.00;101294.78;6080179;19;20019;-79
2024/03/04 09:35:33;;;;;;;4.15;2.55;;;;;;;8.48;100.00;101302.31;6079518;19;20010;-79
2024/03/04 09:37:40;;;;;;;6.82;2.97;;;;;;;8.25;100.00;101306.28;6083304;19;20011;-77
2024/03/04 09:39:45;;;;;;;5.57;2.80;;;;;;;8.51;100.00;101307.47;6079973;19;20042;-77
2024/03/04 09:41:52;;;;;;;6.35;3.47;;;;;;;8.45;100.00;101302.34;6081940;19;20655;-77
2024/03/04 09:44:00;;;;;;;5.65;2.90;;;;;;;8.55;100.00;101303.84;6081300;19;20106;-77
2024/03/04 09:46:09;;;;;;;7.07;2.90;;;;;;;8.77;100.00;101298.97;6080623;19;20024;-79
2024/03/04 09:48:16;;;;;;;6.38;3.30;;;;;;;9.19;100.00;101303.97;6083517;19;20716;-79
2024/03/04 09:50:24;;;;;;;9.57;2.90;;;;;;;9.68;100.00;101294.69;6080940;19;20006;-79
2024/03/04 09:52:33;;;;;;;6.32;3.25;;;;;;;9.68;100.00;101302.56;6078704;19;20010;-80
2024/03/04 09:54:39;;;;;;;4.93;2.90;;;;;;;9.84;100.00;101295.09;6082011;19;20027;-78
2024/03/04 09:56:45;;;;;;;6.45;3.42;;;;;;;9.56;100.00;101301.16;6081541;19;20019;-79
2024/03/04 09:58:51;;;;;;;6.18;3.15;;;;;;;9.84;100.00;101295.09;6083128;19;20010;-77